Time;durP1;ratioP1;P1;durP2;ratioP2;P2;SDS_P1;SDS_P2;PMS_P1;PMS_P2;Temp;Humidity;BMP_temperature;BMP_pressure;BME280_temperature;BME280_humidity;BME280_pressure;Samples;Min_cycle;Max_cycle;Signal;HPM_P1;HPM_P2
2022/05/25 00:01:55;;;;;;;2.83;0.90;;;;;;;11.80;76.21;99795.72;5124980;28;20028;-78
2022/05/25 00:04:20;;;;;;;2.22;0.80;;;;;;;11.79;76.34;99788.66;5110352;28;20051;-78
2022/05/25 00:06:46;;;;;;;2.58;0.90;;;;;;;11.73;76.87;99795.75;5130022;28;20065;-78
2022/05/25 00:09:12;;;;;;;2.35;0.80;;;;;;;11.70;76.52;99789.97;5125655;28;20039;-78
2022/05/25 00:11:38;;;;;;;2.70;0.90;;;;;;;11.76;76.56;99791.81;5119936;28;20036;-78
2022/05/25 00:14:04;;;;;;;2.10;0.85;;;;;;;11.72;76.30;99794.09;5101304;28;20040;-78
2022/05/25 00:16:29;;;;;;;1.77;0.63;;;;;;;11.72;76.55;99799.50;5119277;28;20046;-78
2022/05/25 00:21:39;;;;;;;3.47;1.10;;;;;;;11.88;75.74;99798.06;5121105;28;20038;-78
2022/05/25 00:24:04;;;;;;;1.77;0.70;;;;;;;11.85;75.99;99801.22;5120013;28;20032;-78
2022/05/25 00:26:32;;;;;;;2.17;0.90;;;;;;;11.85;75.73;99803.09;5120055;28;20254;-78
2022/05/25 00:28:57;;;;;;;1.60;0.60;;;;;;;11.97;75.07;99802.13;5119516;28;20112;-78
2022/05/25 00:31:23;;;;;;;2.40;0.87;;;;;;;11.96;75.39;99805.88;5118707;28;20451;-80
2022/05/25 00:33:48;;;;;;;2.03;0.70;;;;;;;11.95;75.11;99806.91;5119790;28;20293;-78
2022/05/25 00:36:13;;;;;;;1.63;0.63;;;;;;;11.96;75.09;99803.16;5100845;28;20038;-78
2022/05/25 00:38:39;;;;;;;2.80;0.73;;;;;;;11.87;75.65;99806.41;5119000;28;20031;-78
2022/05/25 00:41:04;;;;;;;2.50;0.73;;;;;;;11.83;75.89;99801.44;5118939;28;20261;-77
2022/05/25 00:43:29;;;;;;;1.08;0.60;;;;;;;11.85;76.13;99806.63;5118977;28;20072;-78
2022/05/25 00:46:02;;;;;;;3.27;0.70;;;;;;;11.85;76.50;99811.19;5119169;28;20042;-78
2022/05/25 00:48:37;;;;;;;1.40;0.60;;;;;;;11.85;76.23;99809.31;5099936;28;20095;-77
2022/05/25 00:51:13;;;;;;;2.13;1.10;;;;;;;11.73;77.03;99801.16;5118103;28;20035;-78
2022/05/25 00:54:04;;;;;;;2.00;0.88;;;;;;;11.75;77.63;99806.31;5118660;28;20062;-78
2022/05/25 00:56:31;;;;;;;2.72;1.25;;;;;;;11.70;78.20;99816.97;5117743;28;20097;-78
2022/05/25 00:59:13;;;;;;;2.47;1.00;;;;;;;11.56;78.76;99815.50;5118544;28;20034;-77
2022/05/25 01:01:39;;;;;;;3.28;1.05;;;;;;;11.55;78.74;99809.28;5117895;28;20036;-78
2022/05/25 01:04:04;;;;;;;3.97;1.10;;;;;;;11.49;79.39;99811.00;5118678;28;20097;-78
2022/05/25 01:06:51;;;;;;;5.85;1.20;;;;;;;11.57;79.71;99817.13;5118091;28;20035;-78
2022/05/25 01:09:25;;;;;;;2.85;1.10;;;;;;;11.51;79.96;99818.84;5119482;28;20038;-78
2022/05/25 01:12:09;;;;;;;3.42;1.17;;;;;;;11.53;79.68;99824.84;5118589;28;20066;-78
2022/05/25 01:14:57;;;;;;;3.10;1.25;;;;;;;11.55;79.80;99825.47;5119261;28;20039;-78
2022/05/25 01:17:44;;;;;;;4.68;1.65;;;;;;;11.43;80.44;99824.56;5118683;28;20027;-78
2022/05/25 01:20:21;;;;;;;;;;;;;;;11.35;81.42;99822.97;5119264;28;20042;-78
2022/05/25 01:23:06;;;;;;;3.72;1.65;;;;;;;11.27;81.38;99830.56;5118225;28;19918;-77
2022/05/25 01:26:08;;;;;;;3.53;1.30;;;;;;;11.27;82.09;99831.38;5118096;28;20074;-78
2022/05/25 01:28:54;;;;;;;4.18;1.60;;;;;;;11.23;81.65;99834.75;5118487;28;20035;-78
2022/05/25 01:31:28;;;;;;;3.47;1.27;;;;;;;11.17;82.54;99835.63;5118595;28;20028;-78
2022/05/25 01:34:06;;;;;;;3.15;1.20;;;;;;;11.16;82.64;99842.06;5117396;28;20059;-78
2022/05/25 01:36:41;;;;;;;4.13;1.70;;;;;;;11.16;82.93;99842.06;5099823;28;20389;-77
2022/05/25 01:39:13;;;;;;;3.25;1.40;;;;;;;11.11;83.05;99837.34;5116740;28;20154;-78
2022/05/25 01:41:52;;;;;;;4.43;1.40;;;;;;;11.20;83.02;99838.72;5117381;28;20065;-78
2022/05/25 01:44:22;;;;;;;4.68;1.70;;;;;;;11.23;82.37;99842.84;5117701;28;20055;-77
2022/05/25 01:46:56;;;;;;;3.83;1.55;;;;;;;11.32;82.20;99841.47;5118040;28;20043;-77
2022/05/25 01:49:28;;;;;;;3.70;1.50;;;;;;;11.26;82.30;99842.41;5116916;28;20028;-77
2022/05/25 01:52:01;;;;;;;3.33;1.33;;;;;;;11.18;82.90;99846.19;5117398;28;20031;-78
2022/05/25 01:54:30;;;;;;;3.60;1.27;;;;;;;11.10;83.37;99843.81;5098814;28;20449;-77
2022/05/25 01:57:01;;;;;;;3.22;1.33;;;;;;;11.07;83.37;99847.75;5116571;28;20103;-77
2022/05/25 01:59:26;;;;;;;3.50;1.30;;;;;;;11.12;83.36;99845.19;5116709;28;20039;-77
2022/05/25 02:04:19;;;;;;;3.28;1.55;;;;;;;11.00;83.52;99844.28;5116972;28;20035;-77
2022/05/25 02:04:40;;;;;;;4.32;1.48;;;;;;;10.96;84.22;99851.16;5115994;28;20477;-78
2022/05/25 02:07:18;;;;;;;3.95;1.80;;;;;;;10.98;84.11;99846.38;5116261;28;20035;-77
2022/05/25 02:10:05;;;;;;;4.60;1.80;;;;;;;11.03;83.87;99841.16;5116223;28;20031;-77
2022/05/25 02:12:38;;;;;;;3.42;1.33;;;;;;;10.96;84.05;99850.34;5116020;28;20031;-77
2022/05/25 02:15:25;;;;;;;5.18;1.60;;;;;;;10.89;84.59;99846.91;5116171;28;20059;-77
2022/05/25 02:17:50;;;;;;;;;;;;;;;10.91;84.67;99844.81;5117000;28;20077;-77
2022/05/25 02:20:40;;;;;;;3.77;1.47;;;;;;;10.87;84.50;99849.81;5115841;28;19916;-77
2022/05/25 02:23:30;;;;;;;4.70;1.40;;;;;;;10.85;84.47;99848.38;5115706;28;20326;-77
2022/05/25 02:26:57;;;;;;;5.35;1.70;;;;;;;10.87;84.55;99857.06;5115812;28;20384;-77
2022/05/25 02:29:29;;;;;;;4.20;1.67;;;;;;;10.91;83.93;99856.41;5010030;28;20068;-77
2022/05/25 02:32:00;;;;;;;3.92;1.45;;;;;;;10.84;84.34;99858.34;5116105;28;20072;-77
2022/05/25 02:34:27;;;;;;;3.20;1.30;;;;;;;10.82;85.00;99864.97;5116049;28;20128;-77
2022/05/25 02:36:55;;;;;;;4.65;1.73;;;;;;;10.83;84.25;99862.06;5116270;28;20091;-78
2022/05/25 02:39:21;;;;;;;4.88;1.45;;;;;;;10.86;84.45;99858.13;5116128;28;20027;-77
2022/05/25 02:41:50;;;;;;;5.65;1.63;;;;;;;10.81;84.55;99866.84;5115516;28;20058;-78
2022/05/25 02:44:16;;;;;;;3.22;1.30;;;;;;;10.85;84.44;99867.25;5115269;28;20024;-77
2022/05/25 02:46:41;;;;;;;3.85;1.33;;;;;;;10.85;83.68;99868.06;5115297;28;20107;-77
2022/05/25 02:49:07;;;;;;;4.07;1.60;;;;;;;10.74;84.19;99869.63;5115707;28;20054;-77
2022/05/25 02:51:33;;;;;;;;;;;;;;;10.75;84.29;99865.03;5115471;28;20160;-77
2022/05/25 02:53:58;;;;;;;3.28;1.30;;;;;;;10.79;84.12;99867.06;5115482;28;19947;-77
2022/05/25 02:56:23;;;;;;;4.33;1.80;;;;;;;10.83;84.39;99869.34;5115348;28;20058;-77
2022/05/25 02:58:49;;;;;;;3.47;1.43;;;;;;;10.85;84.52;99868.06;5114790;28;20042;-77
2022/05/25 03:01:14;;;;;;;4.10;1.60;;;;;;;10.71;84.36;99880.84;5115527;28;20071;-77
2022/05/25 03:03:39;;;;;;;3.60;1.38;;;;;;;10.71;85.35;99880.00;5115011;28;20442;-77
2022/05/25 03:06:06;;;;;;;4.20;1.85;;;;;;;10.72;85.62;99884.34;5115027;28;20035;-77
2022/05/25 03:08:33;;;;;;;3.17;1.42;;;;;;;10.82;84.68;99878.47;5114610;28;20028;-77
2022/05/25 03:10:58;;;;;;;3.60;1.95;;;;;;;10.78;84.68;99881.59;5113665;28;20028;-77
2022/05/25 03:13:24;;;;;;;3.88;1.40;;;;;;;10.79;85.10;99882.41;5114129;28;20028;-77
2022/05/25 03:15:49;;;;;;;5.80;1.87;;;;;;;10.57;85.76;99884.63;5114442;28;20469;-77
2022/05/25 03:18:15;;;;;;;4.07;1.60;;;;;;;10.61;85.96;99888.56;5096072;28;20277;-77
2022/05/25 03:20:40;;;;;;;5.45;1.77;;;;;;;10.55;86.23;99889.44;5113674;28;20045;-77
2022/05/25 03:23:05;;;;;;;3.83;1.63;;;;;;;10.44;86.22;99899.03;5113903;28;20035;-77
2022/05/25 03:25:31;;;;;;;3.50;1.40;;;;;;;10.47;86.57;99894.25;5114259;28;20046;-77
2022/05/25 03:27:56;;;;;;;5.60;1.63;;;;;;;10.50;86.47;99896.53;5114185;28;20118;-77
2022/05/25 03:30:22;;;;;;;3.40;1.63;;;;;;;10.54;86.26;99890.50;5114027;28;20024;-77
2022/05/25 03:32:47;;;;;;;;;;;;;;;10.50;86.26;99904.59;5114503;28;20031;-77
2022/05/25 03:35:14;;;;;;;3.95;1.65;;;;;;;10.60;85.58;99908.47;5113908;28;20398;-77
2022/05/25 03:37:39;;;;;;;;;;;;;;;10.56;86.02;99896.50;5114712;28;20028;-77
2022/05/25 03:40:09;;;;;;;5.38;1.80;;;;;;;10.50;86.49;99908.13;5114631;28;19911;-77
2022/05/25 03:42:35;;;;;;;4.40;1.80;;;;;;;10.57;86.07;99908.88;5115505;28;20470;-77
2022/05/25 03:45:03;;;;;;;4.93;2.05;;;;;;;10.57;86.59;99908.88;5114943;28;20089;-77
2022/05/25 03:47:29;;;;;;;4.90;1.67;;;;;;;10.67;86.03;99909.25;5117417;28;20378;-78
2022/05/25 03:49:54;;;;;;;4.47;1.90;;;;;;;10.66;85.46;99913.00;5098494;28;20034;-79
2022/05/25 03:52:21;;;;;;;6.70;1.90;;;;;;;10.65;85.83;99910.50;5097092;28;20049;-78
2022/05/25 03:54:46;;;;;;;4.03;1.80;;;;;;;10.64;86.33;99915.06;5115980;28;20030;-78
2022/05/25 03:57:11;;;;;;;5.53;1.57;;;;;;;10.68;85.92;99924.38;5098794;28;20028;-79
2022/05/25 03:59:36;;;;;;;4.78;1.88;;;;;;;10.68;85.05;99924.38;5116563;28;20118;-78
2022/05/25 04:02:02;;;;;;;6.47;1.73;;;;;;;10.60;85.82;99919.22;5116849;28;20032;-78
2022/05/25 04:04:27;;;;;;;7.63;2.42;;;;;;;10.59;86.69;99927.53;5119802;28;20307;-78
2022/05/25 04:06:53;;;;;;;5.17;2.07;;;;;;;10.64;85.77;99928.53;5120719;28;20089;-78
2022/05/25 04:09:18;;;;;;;5.27;2.37;;;;;;;10.69;85.58;99927.91;5101732;28;20587;-79
2022/05/25 04:11:43;;;;;;;6.50;1.88;;;;;;;10.72;85.58;99931.00;5120689;28;20035;-78
2022/05/25 04:14:09;;;;;;;5.15;1.98;;;;;;;10.65;85.59;99924.81;5120409;28;20082;-79
2022/05/25 04:16:35;;;;;;;4.93;2.38;;;;;;;10.69;85.33;99926.03;5119227;28;20062;-78
2022/05/25 04:19:00;;;;;;;7.43;1.70;;;;;;;10.64;85.89;99931.25;5119311;28;20069;-78
2022/05/25 04:21:26;;;;;;;3.97;1.60;;;;;;;10.66;85.60;99934.53;5118763;28;20031;-78
2022/05/25 04:23:51;;;;;;;5.13;1.70;;;;;;;10.64;85.43;99933.09;5118940;28;20127;-78
2022/05/25 04:26:17;;;;;;;5.45;1.92;;;;;;;10.68;84.89;99939.72;5120609;28;20067;-78
2022/05/25 04:28:42;;;;;;;4.40;1.67;;;;;;;10.60;85.85;99934.56;5119548;28;20424;-78
2022/05/25 04:31:07;;;;;;;4.53;2.17;;;;;;;10.67;85.47;99929.97;5120076;28;20153;-78
2022/05/25 04:33:35;;;;;;;7.40;2.17;;;;;;;10.60;85.69;99935.41;5118662;28;20288;-78
2022/05/25 04:36:00;;;;;;;3.78;1.70;;;;;;;10.69;85.14;99933.28;5119540;28;20031;-78
2022/05/25 04:38:26;;;;;;;6.68;1.85;;;;;;;10.67;85.71;99936.19;5117986;28;20024;-78
2022/05/25 04:40:51;;;;;;;3.47;1.60;;;;;;;10.65;85.11;99943.66;5117711;28;20035;-77
2022/05/25 04:43:19;;;;;;;3.65;1.77;;;;;;;10.72;85.29;99946.34;5118574;28;20258;-78
2022/05/25 04:45:49;;;;;;;6.57;1.88;;;;;;;10.76;84.72;99951.03;5117823;28;20039;-77
2022/05/25 04:48:16;;;;;;;4.47;1.90;;;;;;;10.72;85.20;99957.94;5117236;28;20032;-78
2022/05/25 04:50:44;;;;;;;5.70;1.60;;;;;;;10.76;85.32;99948.34;5117981;28;20028;-79
2022/05/25 04:53:11;;;;;;;4.18;1.88;;;;;;;10.84;84.43;99957.22;5118149;28;20031;-77
2022/05/25 04:58:22;;;;;;;5.18;1.80;;;;;;;10.97;83.15;99963.34;5117573;28;20042;-77
2022/05/25 05:00:48;;;;;;;4.75;2.30;;;;;;;10.99;82.53;99965.81;5117614;28;20027;-78
2022/05/25 05:03:14;;;;;;;5.18;1.95;;;;;;;10.95;83.46;99970.00;5117494;28;20028;-78
2022/05/25 05:05:39;;;;;;;4.18;1.80;;;;;;;11.05;83.01;99973.88;5116277;28;20031;-77
2022/05/25 05:08:06;;;;;;;5.65;2.00;;;;;;;11.15;82.25;99967.97;5116827;28;20039;-78
2022/05/25 05:10:32;;;;;;;4.70;1.75;;;;;;;11.25;81.81;99972.91;5117555;28;20403;-78
2022/05/25 05:12:57;;;;;;;5.00;1.70;;;;;;;11.28;81.27;99978.69;5120139;28;20039;-78
2022/05/25 05:15:22;;;;;;;5.43;1.83;;;;;;;11.27;82.07;99982.41;5116495;28;20232;-78
2022/05/25 05:17:47;;;;;;;5.72;1.90;;;;;;;11.38;80.88;99980.88;5117138;28;20027;-79
2022/05/25 05:20:13;;;;;;;4.83;1.60;;;;;;;11.33;80.80;99981.53;5117527;28;20452;-79
2022/05/25 05:22:38;;;;;;;4.45;1.85;;;;;;;11.35;80.25;99979.44;5117679;28;20344;-78
2022/05/25 05:25:04;;;;;;;7.27;2.10;;;;;;;11.38;80.21;99981.69;5117810;28;20040;-78
2022/05/25 05:27:30;;;;;;;3.97;1.48;;;;;;;11.33;80.17;99981.53;5115215;28;20264;-76
2022/05/25 05:30:02;;;;;;;5.97;2.03;;;;;;;11.33;80.17;99976.13;5115512;28;20088;-77
2022/05/25 05:32:30;;;;;;;3.92;1.65;;;;;;;11.43;79.99;99981.03;5115020;28;20027;-77
2022/05/25 05:34:55;;;;;;;4.20;1.83;;;;;;;11.40;80.27;99978.78;5115074;28;20501;-77
2022/05/25 05:37:26;;;;;;;5.22;1.70;;;;;;;11.55;79.75;99978.44;5115899;28;20024;-78
2022/05/25 05:39:54;;;;;;;5.22;1.80;;;;;;;11.45;79.37;99987.88;5115228;28;20054;-76
2022/05/25 05:42:22;;;;;;;3.45;1.45;;;;;;;11.59;78.41;99987.75;5114658;28;20032;-76
2022/05/25 05:45:14;;;;;;;4.90;1.67;;;;;;;11.54;79.32;99988.41;5114506;28;20091;-76
2022/05/25 05:47:49;;;;;;;3.60;1.58;;;;;;;11.54;78.68;99988.41;5114973;28;20093;-77
2022/05/25 05:50:16;;;;;;;4.78;1.40;;;;;;;11.64;78.40;99988.72;5115782;28;20034;-78
2022/05/25 05:52:42;;;;;;;4.28;1.50;;;;;;;11.60;79.08;99992.09;5115378;28;20150;-77
2022/05/25 05:55:07;;;;;;;5.25;1.77;;;;;;;11.67;78.25;99990.13;5115511;28;20066;-77
2022/05/25 05:57:35;;;;;;;4.30;1.58;;;;;;;11.81;77.41;99986.31;5115953;28;20028;-77
2022/05/25 06:00:01;;;;;;;3.90;1.33;;;;;;;11.69;78.50;99988.88;5115741;28;20084;-78
2022/05/25 06:02:26;;;;;;;3.92;1.40;;;;;;;11.86;77.36;99993.72;5116982;28;20030;-78
2022/05/25 06:04:51;;;;;;;4.07;1.40;;;;;;;11.92;77.70;99996.34;5097826;28;20156;-78
2022/05/25 06:07:16;;;;;;;4.13;1.67;;;;;;;12.02;77.00;99998.53;5117182;28;20715;-78
2022/05/25 06:09:42;;;;;;;5.53;1.57;;;;;;;12.10;76.56;100001.75;5116252;28;20039;-78
2022/05/25 06:12:07;;;;;;;4.78;2.20;;;;;;;12.15;76.40;100009.19;5117565;28;20405;-78
2022/05/25 06:14:33;;;;;;;4.28;1.20;;;;;;;12.21;76.08;100004.75;5117372;28;20394;-78
2022/05/25 06:19:42;;;;;;;3.97;1.30;;;;;;;12.28;76.19;100003.63;5115898;28;20039;-78
2022/05/25 06:22:12;;;;;;;2.87;1.27;;;;;;;12.26;76.39;100011.13;5097835;28;20023;-77
2022/05/25 06:24:50;;;;;;;3.75;1.23;;;;;;;12.79;74.82;100014.00;5116514;28;20027;-77
2022/05/25 06:27:17;;;;;;;3.70;1.48;;;;;;;13.64;71.11;100012.91;5116629;28;20035;-78
2022/05/25 06:29:47;;;;;;;4.45;1.55;;;;;;;14.48;67.38;100015.09;5116888;28;20039;-79
2022/05/25 06:32:13;;;;;;;3.50;1.77;;;;;;;15.14;64.87;100015.50;5098393;28;20373;-76
2022/05/25 06:34:41;;;;;;;2.92;1.45;;;;;;;15.95;63.51;100014.94;5113984;28;20051;-77
2022/05/25 06:37:12;;;;;;;2.92;1.20;;;;;;;16.38;60.63;100018.78;5114617;28;20035;-77
2022/05/25 06:39:38;;;;;;;4.50;1.40;;;;;;;16.50;59.52;100021.38;5114679;28;20116;-79
2022/05/25 06:42:04;;;;;;;2.63;0.90;;;;;;;16.86;57.91;100026.16;5115031;28;20031;-77
2022/05/25 06:44:30;;;;;;;3.92;1.58;;;;;;;16.54;57.76;100022.50;5096851;28;20405;-77
2022/05/25 06:46:55;;;;;;;;;;;;;;;17.10;57.00;100023.16;5096840;28;20020;-78
2022/05/25 06:49:21;;;;;;;4.25;1.30;;;;;;;16.64;57.75;100026.22;5115273;28;19937;-77
2022/05/25 06:51:46;;;;;;;;;;;;;;;16.87;56.68;100025.09;5115286;28;20024;-78
2022/05/25 06:54:16;;;;;;;2.60;0.90;;;;;;;16.21;58.41;100029.72;5114929;28;19914;-78
2022/05/25 06:56:41;;;;;;;2.03;0.80;;;;;;;16.48;57.25;100034.41;5114339;28;20090;-78
2022/05/25 06:59:07;;;;;;;;;;;;;;;16.33;57.73;100021.44;5114199;28;20055;-77
2022/05/25 07:01:34;;;;;;;2.83;1.27;;;;;;;16.63;57.07;100027.28;5113840;28;20354;-77
2022/05/25 07:03:59;;;;;;;2.85;1.25;;;;;;;16.24;58.88;100023.78;5114678;28;20031;-77
2022/05/25 07:06:24;;;;;;;;;;;;;;;16.25;59.28;100020.00;5114720;28;20035;-79
2022/05/25 07:08:53;;;;;;;2.25;1.00;;;;;;;16.20;58.46;100028.06;5097937;28;19908;-79
2022/05/25 07:11:20;;;;;;;2.75;0.95;;;;;;;16.44;57.62;100031.38;5115348;28;20533;-79
2022/05/25 07:13:45;;;;;;;4.13;1.30;;;;;;;16.58;56.82;100034.53;5117032;28;20407;-81
2022/05/25 07:16:13;;;;;;;;;;;;;;;16.41;57.11;100029.16;5118303;28;20043;-82
2022/05/25 07:18:39;;;;;;;2.63;0.98;;;;;;;16.17;56.92;100034.00;5118954;28;19967;-81
2022/05/25 07:21:08;;;;;;;4.10;1.33;;;;;;;15.81;57.84;100037.28;5119254;28;20046;-81
2022/05/25 07:23:35;;;;;;;3.53;1.20;;;;;;;15.66;58.66;100039.75;5118575;28;20024;-82
2022/05/25 07:26:00;;;;;;;3.08;0.93;;;;;;;15.09;60.58;100042.53;5119857;28;20088;-81
2022/05/25 07:28:26;;;;;;;4.72;1.08;;;;;;;15.36;60.07;100043.59;5117379;28;20388;-81
2022/05/25 07:30:54;;;;;;;;;;;;;;;15.26;59.28;100046.94;5118017;28;20501;-81
2022/05/25 07:33:19;;;;;;;2.13;0.93;;;;;;;15.11;60.29;100037.69;5120785;28;19919;-81
2022/05/25 07:35:45;;;;;;;3.70;1.55;;;;;;;15.15;60.06;100045.13;5125597;28;20035;-81
2022/05/25 07:38:10;;;;;;;;;;;;;;;15.10;59.98;100046.91;5106047;28;20034;-81
2022/05/25 07:40:40;;;;;;;5.22;0.90;;;;;;;15.14;60.57;100039.94;5125121;28;19947;-81
2022/05/25 07:43:16;;;;;;;3.30;1.38;;;;;;;15.40;59.97;100050.19;5109255;28;20125;-81
2022/05/25 07:45:44;;;;;;;3.22;1.05;;;;;;;15.27;59.94;100050.47;5122246;28;20031;-80
2022/05/25 07:48:11;;;;;;;2.85;1.00;;;;;;;15.38;59.24;100051.50;5102653;28;20036;-81
2022/05/25 07:50:37;;;;;;;2.10;1.00;;;;;;;15.68;59.53;100057.44;5120817;28;20028;-81
2022/05/25 07:53:55;;;;;;;2.53;0.80;;;;;;;15.60;59.21;100052.41;5103836;28;20030;-81
2022/05/25 07:55:50;;;;;;;4.45;0.65;;;;;;;15.87;58.23;100045.25;5123361;28;20050;-81
2022/05/25 07:58:15;;;;;;;2.90;1.08;;;;;;;16.04;56.76;100050.66;5136911;28;20027;-81
2022/05/25 08:00:41;;;;;;;;;;;;;;;15.94;56.76;100050.53;5136863;28;20061;-81
2022/05/25 08:05:54;;;;;;;5.13;1.25;;;;;;;16.25;56.46;100058.06;5137125;28;20030;-81
2022/05/25 08:08:24;;;;;;;1.63;0.75;;;;;;;16.21;55.39;100046.03;5128346;28;20028;-81
2022/05/25 08:10:56;;;;;;;1.92;0.65;;;;;;;16.12;55.29;100044.00;5123716;28;20027;-82
2022/05/25 08:13:23;;;;;;;1.58;0.60;;;;;;;16.13;55.54;100060.03;5104822;28;20351;-81
2022/05/25 08:15:49;;;;;;;1.45;0.63;;;;;;;15.93;54.77;100060.59;5121739;28;20478;-81
2022/05/25 08:18:16;;;;;;;2.78;0.90;;;;;;;16.11;55.37;100067.63;5118507;28;20039;-81
2022/05/25 08:20:42;;;;;;;5.25;1.45;;;;;;;15.93;56.29;100065.19;5118394;28;20027;-81
2022/05/25 08:23:10;;;;;;;3.08;1.27;;;;;;;16.24;55.47;100059.13;5100176;28;20055;-82
2022/05/25 08:25:35;;;;;;;3.53;1.00;;;;;;;16.35;55.47;100056.53;5119498;28;20073;-80
2022/05/25 08:28:01;;;;;;;;;;;;;;;16.21;55.25;100056.91;5122618;28;20036;-81
2022/05/25 08:30:26;;;;;;;0.90;0.40;;;;;;;16.15;54.54;100059.78;5120980;28;19976;-82
2022/05/25 08:32:52;;;;;;;;;;;;;;;16.49;55.22;100064.06;5121313;28;20370;-81
2022/05/25 08:35:23;;;;;;;2.40;0.57;;;;;;;16.76;54.50;100049.75;5122017;28;19934;-81
2022/05/25 08:37:49;;;;;;;1.63;0.70;;;;;;;16.87;52.82;100048.75;5121056;28;20027;-79
2022/05/25 08:40:18;;;;;;;;;;;;;;;16.81;52.03;100055.25;5123958;28;20031;-80
2022/05/25 08:42:54;;;;;;;2.45;0.90;;;;;;;16.67;52.73;100057.50;5108853;28;19922;-81
2022/05/25 08:45:22;;;;;;;;;;;;;;;16.69;51.61;100063.53;5126977;28;20038;-81
2022/05/25 08:47:52;;;;;;;1.67;0.50;;;;;;;16.30;52.65;100055.38;5121391;28;20033;-80
2022/05/25 08:50:17;;;;;;;1.27;0.50;;;;;;;16.48;52.81;100051.53;5122464;28;20361;-81
2022/05/25 08:52:43;;;;;;;;;;;;;;;16.36;52.97;100063.59;5125645;28;20031;-81
2022/05/25 08:55:10;;;;;;;2.25;0.60;;;;;;;16.42;53.50;100062.63;5121935;28;19918;-81
2022/05/25 08:57:44;;;;;;;2.47;0.60;;;;;;;16.44;51.58;100055.03;5118227;28;20028;-80
2022/05/25 09:00:14;;;;;;;1.20;0.50;;;;;;;16.38;51.86;100059.56;5117477;28;20077;-80
2022/05/25 09:02:42;;;;;;;0.85;0.40;;;;;;;16.54;51.76;100047.00;5119574;28;20023;-82
2022/05/25 09:05:30;;;;;;;1.52;0.50;;;;;;;16.45;52.43;100062.94;5118776;28;20038;-81
2022/05/25 09:08:21;;;;;;;0.57;0.40;;;;;;;16.61;50.78;100061.22;5119248;28;20044;-80
2022/05/25 09:10:53;;;;;;;1.00;0.45;;;;;;;16.66;51.53;100058.59;5118986;28;20023;-81
2022/05/25 09:13:28;;;;;;;1.15;0.50;;;;;;;16.94;50.66;100058.38;5100152;28;20450;-80
2022/05/25 09:19:04;;;;;;;2.95;0.88;;;;;;;16.96;49.52;100048.06;5117986;28;20042;-81
2022/05/25 09:21:33;;;;;;;0.75;0.30;;;;;;;17.04;50.62;100054.13;5098972;28;20118;-81
2022/05/25 09:24:06;;;;;;;0.50;0.40;;;;;;;17.29;49.16;100051.66;5118030;28;20051;-81
2022/05/25 09:26:32;;;;;;;1.80;0.60;;;;;;;17.59;48.70;100060.09;5118616;28;20515;-82
2022/05/25 09:28:59;;;;;;;;;;;;;;;17.58;48.30;100052.19;5119233;28;20031;-81
2022/05/25 09:31:31;;;;;;;1.92;0.70;;;;;;;17.52;49.54;100050.50;5117812;28;19918;-81
2022/05/25 09:34:06;;;;;;;0.93;0.43;;;;;;;17.45;49.33;100064.34;5099385;28;20406;-82
2022/05/25 09:36:39;;;;;;;1.02;0.60;;;;;;;17.66;48.07;100068.91;5118182;28;20032;-81
2022/05/25 09:39:26;;;;;;;1.27;0.43;;;;;;;17.04;47.75;100070.44;5118990;28;20023;-81
2022/05/25 09:41:58;;;;;;;;;;;;;;;16.96;48.61;100066.31;5119712;28;20028;-82
2022/05/25 09:44:25;;;;;;;1.35;0.60;;;;;;;17.06;48.69;100068.28;5118514;28;19933;-81
2022/05/25 09:46:58;;;;;;;1.20;0.40;;;;;;;17.25;48.03;100073.13;5119811;28;20507;-81
2022/05/25 09:49:41;;;;;;;2.13;0.70;;;;;;;17.28;48.35;100069.09;5122189;28;20049;-82
2022/05/25 09:52:19;;;;;;;1.05;0.47;;;;;;;17.27;47.87;100068.25;5119976;28;20023;-81
2022/05/25 09:55:04;;;;;;;1.42;0.60;;;;;;;17.57;47.32;100085.94;5099544;28;20493;-81
2022/05/25 09:57:34;;;;;;;1.50;0.47;;;;;;;17.34;47.51;100073.50;5118223;28;20500;-81
2022/05/25 10:00:08;;;;;;;1.55;0.70;;;;;;;17.25;47.63;100085.94;5099146;28;20039;-80
2022/05/25 10:02:41;;;;;;;1.15;0.50;;;;;;;17.22;47.89;100078.25;5118202;28;20019;-80
2022/05/25 10:05:27;;;;;;;1.63;0.50;;;;;;;17.35;48.02;100070.53;5099887;28;20027;-81
2022/05/25 10:08:07;;;;;;;0.68;0.40;;;;;;;17.25;47.29;100073.13;5117963;28;20034;-80
2022/05/25 10:10:50;;;;;;;1.02;0.43;;;;;;;17.42;46.01;100072.19;5118350;28;20055;-80
2022/05/25 10:13:36;;;;;;;2.17;0.88;;;;;;;17.42;46.67;100064.84;5119147;28;20465;-80
2022/05/25 10:16:21;;;;;;;1.23;0.50;;;;;;;17.30;45.66;100075.91;5118985;28;20040;-80
2022/05/25 10:18:48;;;;;;;1.40;0.50;;;;;;;17.43;45.92;100069.22;5119260;28;20031;-80
2022/05/25 10:21:35;;;;;;;1.42;0.50;;;;;;;17.61;45.39;100066.13;5102950;28;20521;-80
2022/05/25 10:24:12;;;;;;;0.75;0.50;;;;;;;17.52;45.71;100081.31;5126228;28;20512;-79
2022/05/25 10:26:44;;;;;;;1.13;0.50;;;;;;;17.63;45.58;100063.94;5127486;28;20040;-76
2022/05/25 10:29:12;;;;;;;2.17;0.70;;;;;;;17.39;46.03;100072.72;5125168;28;20106;-77
2022/05/25 10:37:39;;;;;;;0.88;0.40;;;;;;;17.62;46.80;100067.75;5123413;28;20027;-76
2022/05/25 10:40:08;;;;;;;3.05;0.70;;;;;;;17.73;46.72;100068.72;5120905;28;20048;-78
2022/05/25 10:42:39;;;;;;;1.50;0.60;;;;;;;17.93;45.57;100065.28;5114261;28;20119;-77
2022/05/25 10:45:07;;;;;;;1.25;0.60;;;;;;;17.86;46.36;100062.81;5114915;28;20024;-77
2022/05/25 10:47:57;;;;;;;1.70;0.82;;;;;;;17.69;44.62;100062.97;5114488;28;20458;-77
2022/05/25 10:50:30;;;;;;;0.93;0.40;;;;;;;17.92;44.53;100055.47;5096749;28;20424;-78
2022/05/25 10:53:16;;;;;;;1.55;0.60;;;;;;;17.87;43.86;100071.81;5114523;28;20111;-76
2022/05/25 10:56:26;;;;;;;1.45;0.60;;;;;;;17.98;43.52;100068.88;5113847;28;20032;-77
2022/05/25 10:59:10;;;;;;;2.05;0.70;;;;;;;18.22;43.47;100073.94;5065955;28;20043;-77
2022/05/25 11:01:46;;;;;;;3.42;0.93;;;;;;;18.21;42.58;100070.41;5114767;28;20024;-78
2022/05/25 11:04:21;;;;;;;1.98;0.43;;;;;;;18.19;42.61;100077.19;5114278;28;20023;-77
2022/05/25 11:07:06;;;;;;;1.48;0.50;;;;;;;18.27;42.78;100082.19;5114346;28;20046;-77
2022/05/25 11:10:00;;;;;;;0.88;0.38;;;;;;;18.30;42.50;100077.00;5096370;28;20081;-78
2022/05/25 11:12:47;;;;;;;1.00;0.30;;;;;;;18.12;42.53;100080.16;5113825;28;20035;-77
2022/05/25 11:15:25;;;;;;;0.60;0.40;;;;;;;18.15;43.12;100082.34;5113702;28;20046;-76
2022/05/25 11:18:12;;;;;;;1.42;0.50;;;;;;;18.27;43.31;100072.06;5114236;28;20028;-76
2022/05/25 11:20:49;;;;;;;1.02;0.43;;;;;;;18.28;43.91;100078.34;5113382;28;20027;-76
2022/05/25 11:23:35;;;;;;;0.82;0.40;;;;;;;18.46;43.24;100061.53;5113800;28;20031;-77
2022/05/25 11:26:06;;;;;;;0.93;0.50;;;;;;;18.76;41.95;100077.25;5113471;28;20054;-76
2022/05/25 11:29:15;;;;;;;1.92;0.40;;;;;;;18.84;41.83;100086.81;5114021;28;20043;-76
2022/05/25 11:32:02;;;;;;;0.30;0.20;;;;;;;18.78;41.34;100082.44;5094943;28;20111;-75
2022/05/25 11:34:40;;;;;;;1.08;0.40;;;;;;;18.57;41.84;100073.31;5113512;28;20065;-75
2022/05/25 11:37:16;;;;;;;0.40;0.30;;;;;;;18.61;42.26;100077.19;5113313;28;20036;-76
2022/05/25 11:39:54;;;;;;;1.35;0.55;;;;;;;18.78;42.22;100071.53;5113506;28;20031;-77
2022/05/25 11:42:56;;;;;;;1.40;0.50;;;;;;;18.71;41.73;100067.13;5114007;28;20032;-76
2022/05/25 11:45:40;;;;;;;1.35;0.52;;;;;;;18.66;41.16;100072.56;5113695;28;20386;-77
2022/05/25 11:48:18;;;;;;;0.85;0.30;;;;;;;18.60;41.87;100067.38;5113266;28;20023;-76
2022/05/25 11:51:04;;;;;;;1.25;0.50;;;;;;;18.42;41.75;100057.69;5115350;28;20031;-77
2022/05/25 11:53:39;;;;;;;;;;;;;;;18.35;42.29;100057.94;5115611;28;20028;-76
2022/05/25 11:56:10;;;;;;;0.43;0.30;;;;;;;18.44;42.15;100043.81;5113487;28;19912;-80
2022/05/25 11:58:47;;;;;;;0.50;0.30;;;;;;;18.56;41.98;100055.31;5112858;28;20024;-76
2022/05/25 12:01:31;;;;;;;0.43;0.30;;;;;;;18.75;40.07;100055.69;5095266;28;20119;-76
2022/05/25 12:04:24;;;;;;;0.43;0.40;;;;;;;19.00;39.77;100053.03;5113799;28;20051;-77
2022/05/25 12:06:58;;;;;;;0.47;0.30;;;;;;;19.31;39.34;100056.66;5113435;28;20024;-77
2022/05/25 12:09:32;;;;;;;0.90;0.50;;;;;;;18.95;40.02;100055.75;5113711;28;20104;-77
2022/05/25 12:12:09;;;;;;;1.20;0.60;;;;;;;18.81;39.69;100051.91;5095050;28;20024;-79
2022/05/25 12:14:54;;;;;;;1.08;0.57;;;;;;;19.15;40.02;100055.81;5113259;28;20036;-76